Time;durP1;ratioP1;P1;durP2;ratioP2;P2;SDS_P1;SDS_P2;PMS_P1;PMS_P2;Temp;Humidity;BMP_temperature;BMP_pressure;BME280_temperature;BME280_humidity;BME280_pressure;Samples;Min_cycle;Max_cycle;Signal;HPM_P1;HPM_P2
2024/02/13 00:02:03;533345.00;1.78;919.26;78996.00;0.26;137.30;;;;;12.60;1.00;;;;;;2323065;55;3602;-86
2024/02/13 00:29:44;842519.00;2.81;1455.38;101179.00;0.34;175.61;;;;;12.30;1.00;;;;;;2274612;61;995;-88
2024/02/13 01:20:11;432178.00;1.44;745.13;0.00;0.00;0.62;;;;;10.40;1.00;;;;;;2274777;61;1301;-90
2024/02/13 01:25:13;485031.00;1.62;836.06;0.00;0.00;0.62;;;;;11.50;1.00;;;;;;2270800;61;1344;-91
2024/02/13 01:27:41;96226.00;0.32;167.06;0.00;0.00;0.62;;;;;11.90;1.00;;;;;;2269206;61;1500;-90
2024/02/13 01:42:42;285061.00;0.95;492.24;0.00;0.00;0.62;;;;;12.60;1.00;;;;;;2320453;40;3483;-88
2024/02/13 03:03:04;330487.00;1.10;570.32;0.00;0.00;0.62;;;;;12.30;1.00;;;;;;2274341;61;1288;-89
2024/02/13 03:05:33;79748.00;0.27;138.60;0.00;0.00;0.62;;;;;12.60;1.00;;;;;;2272879;61;1579;-89
2024/02/13 04:23:50;871107.00;2.90;1505.43;86845.00;0.29;150.86;;;;;13.50;1.00;;;;;;2270417;61;1325;-92
2024/02/13 04:26:18;997596.00;3.33;1728.21;95110.00;0.32;165.13;;;;;13.60;1.00;;;;;;2268760;61;516;-89
2024/02/13 04:31:14;1099957.00;3.67;1910.35;73732.00;0.25;128.21;;;;;13.30;1.00;;;;;;2274441;61;1291;-90
2024/02/13 04:33:41;988356.00;3.29;1711.86;93251.00;0.31;161.92;;;;;13.10;1.00;;;;;;2272710;61;2005;-91
2024/02/13 04:47:11;281238.00;0.94;485.67;0.00;0.00;0.62;;;;;12.00;1.00;;;;;;2275314;61;1325;-90
2024/02/13 05:54:44;426664.00;1.42;735.65;0.00;0.00;0.62;;;;;12.30;1.00;;;;;;2271170;61;1882;-91
2024/02/13 06:42:23;642961.00;2.14;1108.46;82482.00;0.27;143.32;;;;;9.90;1.00;;;;;;2274681;61;1226;-88
2024/02/13 07:29:59;209116.00;0.70;361.61;0.00;0.00;0.62;;;;;12.00;1.00;;;;;;2274543;61;1309;-90
2024/02/13 07:32:26;206836.00;0.69;357.69;40281.00;0.13;70.37;;;;;12.00;1.00;;;;;;2272886;61;1733;-90
2024/02/13 07:40:00;527805.00;1.76;909.71;31574.00;0.11;55.31;;;;;11.60;1.00;;;;;;2270496;61;1051;-91
2024/02/13 07:42:28;214179.00;0.71;370.33;31285.00;0.10;54.81;;;;;11.20;1.00;;;;;;2285138;39;3587;-87
2024/02/13 07:44:57;95025.00;0.32;164.98;0.00;0.00;0.62;;;;;11.30;1.00;;;;;;2272168;61;1254;-88
2024/02/13 07:54:52;194074.00;0.65;335.72;0.00;0.00;0.62;;;;;11.20;1.00;;;;;;2270951;61;1951;-91
2024/02/13 07:57:21;402055.00;1.34;693.34;19354.00;0.06;34.15;;;;;11.30;1.00;;;;;;2268880;61;1732;-89
2024/02/13 07:59:54;214477.00;0.71;370.84;0.00;0.00;0.62;;;;;11.40;1.00;;;;;;2268906;61;1344;-88
2024/02/13 08:10:00;477039.00;1.59;822.30;0.00;0.00;0.62;;;;;11.80;1.00;;;;;;2342030;39;4109;-88
2024/02/13 08:12:28;93718.00;0.31;162.73;0.00;0.00;0.62;;;;;12.10;1.00;;;;;;2308056;55;3731;-90
2024/02/13 08:14:55;480303.00;1.60;827.92;0.00;0.00;0.62;;;;;12.70;1.00;;;;;;2280414;40;3580;-89
2024/02/13 08:17:22;94129.00;0.31;163.44;0.00;0.00;0.62;;;;;12.90;1.00;;;;;;2272875;61;1698;-89
2024/02/13 08:19:49;195880.00;0.65;338.83;0.00;0.00;0.62;;;;;12.90;1.00;;;;;;2272679;61;935;-90
2024/02/13 08:35:01;211281.00;0.70;365.34;0.00;0.00;0.62;;;;;12.60;1.00;;;;;;2270162;61;1879;-90
2024/02/13 08:49:59;379410.00;1.26;654.41;19990.00;0.07;35.25;;;;;12.60;1.00;;;;;;2270547;61;1333;-89
2024/02/13 08:54:58;395474.00;1.32;682.02;0.00;0.00;0.62;;;;;12.50;1.00;;;;;;2274151;61;1938;-90
2024/02/13 08:57:26;426419.00;1.42;735.23;108815.00;0.36;188.79;;;;;12.70;1.00;;;;;;2268216;61;941;-92
2024/02/13 09:20:14;126240688.00;420.80;81510672.00;119273.00;0.40;206.83;;;;;12.40;1.00;;;;;;2423981;40;3194;31
2024/02/13 10:18:15;689304.00;2.30;1188.70;37379.00;0.12;65.35;;;;;13.00;1.00;;;;;;2275151;61;999;-91
2024/02/13 13:35:13;684731.00;2.28;1180.77;95056.00;0.32;165.04;;;;;14.40;1.00;;;;;;2271021;61;1950;-89
2024/02/13 13:40:16;236719.00;0.79;409.11;0.00;0.00;0.62;;;;;14.30;1.00;;;;;;2275083;61;1341;-91
2024/02/13 13:42:44;225128.00;0.75;389.17;0.00;0.00;0.62;;;;;14.60;1.00;;;;;;2273258;61;1536;-90
2024/02/13 13:45:14;291850.00;0.97;503.91;0.00;0.00;0.62;;;;;14.50;1.00;;;;;;2273271;61;1566;-89
2024/02/13 13:50:17;113911.00;0.38;197.58;11530.00;0.04;20.60;;;;;14.80;1.00;;;;;;2274124;61;1419;-88
2024/02/13 13:52:44;11234.00;0.04;20.09;0.00;0.00;0.62;;;;;14.30;1.00;;;;;;2272683;61;1438;-89
2024/02/13 13:55:12;40144.00;0.13;70.14;0.00;0.00;0.62;;;;;13.90;1.00;;;;;;2272601;61;2009;-87
2024/02/13 13:57:39;113812.00;0.38;197.41;0.00;0.00;0.62;;;;;13.90;1.00;;;;;;2272670;61;1134;-87
2024/02/13 14:00:10;129793.00;0.43;224.97;0.00;0.00;0.62;;;;;14.20;1.00;;;;;;2272677;61;1109;-86
2024/02/13 14:02:38;99274.00;0.33;172.32;0.00;0.00;0.62;;;;;14.10;1.00;;;;;;2272474;61;1386;-88
2024/02/13 14:05:05;48347.00;0.16;84.33;0.00;0.00;0.62;;;;;14.80;1.00;;;;;;2272438;61;1038;-88
2024/02/13 14:07:34;10585.00;0.04;18.96;0.00;0.00;0.62;;;;;15.00;1.00;;;;;;2272497;61;1085;-88
2024/02/13 14:10:01;452207.00;1.51;779.58;140059.00;0.47;242.67;;;;;14.90;1.00;;;;;;2272544;61;956;-89
2024/02/13 14:12:28;171187.00;0.57;296.31;52835.00;0.18;92.09;;;;;14.90;1.00;;;;;;2272275;61;1743;-87
2024/02/13 14:14:56;39305.00;0.13;68.69;0.00;0.00;0.62;;;;;14.20;1.00;;;;;;2272492;61;1994;-87
2024/02/13 14:17:23;79107.00;0.26;137.49;0.00;0.00;0.62;;;;;14.20;1.00;;;;;;2272147;61;1039;-87
2024/02/13 14:19:50;38309.00;0.13;66.96;0.00;0.00;0.62;;;;;14.70;1.00;;;;;;2272406;61;1423;-87
2024/02/13 14:22:17;51643.00;0.17;90.03;0.00;0.00;0.62;;;;;14.90;1.00;;;;;;2272526;61;1377;-87
2024/02/13 14:24:46;100231.00;0.33;173.97;0.00;0.00;0.62;;;;;15.30;1.00;;;;;;2272474;61;1673;-89
2024/02/13 14:27:15;129970.00;0.43;225.28;0.00;0.00;0.62;;;;;15.30;1.00;;;;;;2272402;61;864;-88
2024/02/13 14:29:43;96046.00;0.32;166.75;0.00;0.00;0.62;;;;;14.70;1.00;;;;;;2290390;55;3799;-87
2024/02/13 14:32:11;0.00;0.00;0.62;0.00;0.00;0.62;;;;;14.80;1.00;;;;;;2272525;61;1746;-88
2024/02/13 14:34:39;77645.00;0.26;134.97;0.00;0.00;0.62;;;;;14.70;1.00;;;;;;2272487;61;2006;-87
2024/02/13 14:37:09;80414.00;0.27;139.75;0.00;0.00;0.62;;;;;14.80;1.00;;;;;;2272566;61;1245;-91
2024/02/13 14:39:36;0.00;0.00;0.62;0.00;0.00;0.62;;;;;15.10;1.00;;;;;;2280817;39;3583;-87
2024/02/13 14:42:07;204263.00;0.68;353.26;36516.00;0.12;63.86;;;;;14.70;1.00;;;;;;2273157;61;822;-88
2024/02/13 14:44:34;56599.00;0.19;98.60;0.00;0.00;0.62;;;;;14.70;1.00;;;;;;2272485;61;1492;-86
2024/02/13 14:47:04;66702.00;0.22;116.06;0.00;0.00;0.62;;;;;14.80;1.00;;;;;;2272494;61;1047;-88
2024/02/13 14:49:34;222303.00;0.74;384.31;0.00;0.00;0.62;;;;;15.10;1.00;;;;;;2272358;61;1259;-88
2024/02/13 14:52:01;2957.00;0.01;5.75;0.00;0.00;0.62;;;;;15.20;1.00;;;;;;2272391;61;1022;-87
2024/02/13 14:54:31;0.00;0.00;0.62;0.00;0.00;0.62;;;;;15.20;1.00;;;;;;2272450;61;1919;-88
2024/02/13 14:56:59;60475.00;0.20;105.30;0.00;0.00;0.62;;;;;14.90;1.00;;;;;;2272346;61;1243;-88
2024/02/13 14:59:28;0.00;0.00;0.62;0.00;0.00;0.62;;;;;14.20;1.00;;;;;;2272419;61;1043;-87
2024/02/13 15:01:55;145868.00;0.49;252.69;0.00;0.00;0.62;;;;;14.00;1.00;;;;;;2272320;61;1442;-86
2024/02/13 15:04:22;100937.00;0.34;175.19;0.00;0.00;0.62;;;;;14.10;1.00;;;;;;2272382;61;1422;-87
2024/02/13 15:06:50;16036.00;0.05;28.41;0.00;0.00;0.62;;;;;14.50;1.00;;;;;;2272256;61;1118;-88
2024/02/13 15:09:18;101441.00;0.34;176.06;0.00;0.00;0.62;;;;;14.40;1.00;;;;;;2272414;61;1561;-88
2024/02/13 15:14:14;175171.00;0.58;303.17;0.00;0.00;0.62;;;;;14.40;1.00;;;;;;2270021;61;1349;-88
2024/02/13 15:16:47;163070.00;0.54;282.33;0.00;0.00;0.62;;;;;14.60;1.00;;;;;;2268336;61;1932;-88
2024/02/13 15:19:14;20213.00;0.07;35.64;0.00;0.00;0.62;;;;;14.50;1.00;;;;;;2268385;61;1781;-87
2024/02/13 15:21:43;213578.00;0.71;369.29;6511.00;0.02;11.90;;;;;14.30;1.00;;;;;;2268377;61;921;-87
2024/02/13 15:24:11;186774.00;0.62;323.15;22443.00;0.07;39.50;;;;;14.50;1.00;;;;;;2268355;61;1340;-88
2024/02/13 15:26:38;0.00;0.00;0.62;0.00;0.00;0.62;;;;;14.80;1.00;;;;;;2268364;61;1192;-88
2024/02/13 15:29:06;9188.00;0.03;16.54;0.00;0.00;0.62;;;;;15.00;1.00;;;;;;2268252;61;1074;-87
2024/02/13 15:31:33;72133.00;0.24;125.45;0.00;0.00;0.62;;;;;14.90;1.00;;;;;;2268349;61;1107;-87
2024/02/13 15:34:02;108944.00;0.36;189.01;0.00;0.00;0.62;;;;;14.50;1.00;;;;;;2268337;61;1391;-89
2024/02/13 15:36:32;0.00;0.00;0.62;0.00;0.00;0.62;;;;;14.10;1.00;;;;;;2268288;61;1934;-87
2024/02/13 15:47:20;227341.00;0.76;392.97;45994.00;0.15;80.26;;;;;14.40;1.00;;;;;;2260445;61;1061;-88
2024/02/13 15:49:49;272156.00;0.91;470.05;61942.00;0.21;107.83;;;;;14.00;1.00;;;;;;2268241;61;992;-87
2024/02/13 15:52:16;18818.00;0.06;33.22;0.00;0.00;0.62;;;;;14.00;1.00;;;;;;2268272;61;1366;-88
2024/02/13 15:54:44;94999.00;0.32;164.94;0.00;0.00;0.62;;;;;14.00;1.00;;;;;;2268299;61;1912;-88
2024/02/13 15:57:12;21576.00;0.07;38.00;0.00;0.00;0.62;;;;;14.00;1.00;;;;;;2268276;61;1092;-87
2024/02/13 15:59:40;89688.00;0.30;155.77;0.00;0.00;0.62;;;;;13.90;1.00;;;;;;2268296;61;1099;-88
2024/02/13 16:02:08;69151.00;0.23;120.29;0.00;0.00;0.62;;;;;13.80;1.00;;;;;;2268255;61;1205;-88
2024/02/13 16:04:36;275626.00;0.92;476.02;30273.00;0.10;53.06;;;;;13.90;1.00;;;;;;2268155;61;1706;-87
2024/02/13 16:07:08;25363.00;0.08;44.56;0.00;0.00;0.62;;;;;13.80;1.00;;;;;;2268253;61;1510;-87
2024/02/13 16:09:35;50656.00;0.17;88.32;0.00;0.00;0.62;;;;;13.60;1.00;;;;;;2268353;61;1150;-87
2024/02/13 16:12:04;6765.00;0.02;12.34;0.00;0.00;0.62;;;;;13.70;1.00;;;;;;2268155;61;1017;-88
2024/02/13 16:14:30;69381.00;0.23;120.69;0.00;0.00;0.62;;;;;13.60;1.00;;;;;;2268167;61;1338;-87
2024/02/13 16:16:58;16958.00;0.06;30.00;0.00;0.00;0.62;;;;;13.40;1.00;;;;;;2268057;61;1938;-89
2024/02/13 16:19:26;27317.00;0.09;47.94;0.00;0.00;0.62;;;;;13.30;1.00;;;;;;2268195;61;1744;-86
2024/02/13 16:21:53;0.00;0.00;0.62;0.00;0.00;0.62;;;;;13.20;1.00;;;;;;2268159;61;1634;-88
2024/02/13 16:24:21;41313.00;0.14;72.16;0.00;0.00;0.62;;;;;13.30;1.00;;;;;;2268155;61;1274;-86
2024/02/13 16:26:52;11548.00;0.04;20.63;0.00;0.00;0.62;;;;;13.30;1.00;;;;;;2268204;61;1056;-88
2024/02/13 16:29:22;103412.00;0.34;179.46;0.00;0.00;0.62;;;;;13.20;1.00;;;;;;2268203;61;1285;-87
2024/02/13 16:31:53;69323.00;0.23;120.59;0.00;0.00;0.62;;;;;13.50;1.00;;;;;;2268139;61;1581;-87
2024/02/13 16:34:20;95632.00;0.32;166.03;0.00;0.00;0.62;;;;;13.60;1.00;;;;;;2268142;61;1746;-88
2024/02/13 16:36:47;274387.00;0.91;473.89;0.00;0.00;0.62;;;;;13.60;1.00;;;;;;2268051;61;1940;-88
2024/02/13 16:39:14;89023.00;0.30;154.62;0.00;0.00;0.62;;;;;13.70;1.00;;;;;;2268070;61;1088;-88
2024/02/13 16:41:42;59248.00;0.20;103.18;0.00;0.00;0.62;;;;;13.50;1.00;;;;;;2267895;61;1032;-87
2024/02/13 16:44:12;128623.00;0.43;222.95;0.00;0.00;0.62;;;;;13.30;1.00;;;;;;2268036;61;1347;-87
2024/02/13 16:46:39;44865.00;0.15;78.30;0.00;0.00;0.62;;;;;13.50;1.00;;;;;;2268106;61;1050;-87
2024/02/13 16:49:08;185111.00;0.62;320.29;0.00;0.00;0.62;;;;;13.70;1.00;;;;;;2268160;61;1018;-87
2024/02/13 16:51:37;0.00;0.00;0.62;0.00;0.00;0.62;;;;;13.50;1.00;;;;;;2268079;61;1636;-88
2024/02/13 16:54:04;18293.00;0.06;32.31;0.00;0.00;0.62;;;;;13.60;1.00;;;;;;2268070;61;2083;-88
2024/02/13 16:56:31;0.00;0.00;0.62;0.00;0.00;0.62;;;;;13.60;1.00;;;;;;2268082;61;2013;-88
2024/02/13 16:58:59;60558.00;0.20;105.44;0.00;0.00;0.62;;;;;13.80;1.00;;;;;;2268100;61;1594;-86
2024/02/13 17:01:26;25759.00;0.09;45.24;0.00;0.00;0.62;;;;;14.00;1.00;;;;;;2268097;61;1032;-87
2024/02/13 17:03:53;43917.00;0.15;76.66;0.00;0.00;0.62;;;;;13.90;1.00;;;;;;2268087;61;1276;-88
2024/02/13 17:06:21;84207.00;0.28;146.30;0.00;0.00;0.62;;;;;14.10;1.00;;;;;;2267953;61;1581;-88
2024/02/13 17:08:47;2591.00;0.01;5.11;0.00;0.00;0.62;;;;;14.10;1.00;;;;;;2268006;61;1051;-87
2024/02/13 17:11:17;0.00;0.00;0.62;0.00;0.00;0.62;;;;;14.00;1.00;;;;;;2268035;61;1012;-87
2024/02/13 17:13:45;276355.00;0.92;477.27;0.00;0.00;0.62;;;;;14.20;1.00;;;;;;2268001;61;1329;-87
2024/02/13 17:16:15;77131.00;0.26;134.08;0.00;0.00;0.62;;;;;14.30;1.00;;;;;;2267966;61;1998;-87
2024/02/13 17:18:42;150666.00;0.50;260.96;0.00;0.00;0.62;;;;;14.20;1.00;;;;;;2267875;61;1534;-87
2024/02/13 17:21:09;66476.00;0.22;115.67;0.00;0.00;0.62;;;;;14.30;1.00;;;;;;2268086;61;1064;-87
2024/02/13 17:23:35;191732.00;0.64;331.69;0.00;0.00;0.62;;;;;14.20;1.00;;;;;;2267866;61;1404;-88
2024/02/13 17:26:03;134198.00;0.45;232.57;0.00;0.00;0.62;;;;;14.20;1.00;;;;;;2267898;61;1633;-87
2024/02/13 17:28:30;43100.00;0.14;75.25;0.00;0.00;0.62;;;;;14.20;1.00;;;;;;2267887;61;1053;-87
2024/02/13 17:30:57;240415.00;0.80;415.47;53781.00;0.18;93.72;;;;;14.30;1.00;;;;;;2267963;61;1106;-88
2024/02/13 17:33:26;187197.00;0.62;323.88;9828.00;0.03;17.65;;;;;14.20;1.00;;;;;;2267790;61;1370;-85
2024/02/13 17:35:55;9290.00;0.03;16.72;0.00;0.00;0.62;;;;;14.10;1.00;;;;;;2267826;61;1932;-87
2024/02/13 17:38:23;155770.00;0.52;269.75;0.00;0.00;0.62;;;;;14.10;1.00;;;;;;2267820;61;1620;-86
2024/02/13 17:40:52;1142921.00;3.81;1987.35;81024.00;0.27;140.81;;;;;14.30;1.00;;;;;;2267812;61;1127;-87
2024/02/13 17:43:19;703760.00;2.35;1213.76;94446.00;0.31;163.98;;;;;14.40;1.00;;;;;;2267877;61;1310;-86
2024/02/13 17:45:46;354862.00;1.18;612.22;86673.00;0.29;150.56;;;;;14.50;1.00;;;;;;2267768;61;1107;-88
2024/02/13 17:48:15;357104.00;1.19;616.07;96177.00;0.32;166.97;;;;;14.60;1.00;;;;;;2267898;61;1117;-85
2024/02/13 17:50:46;267027.00;0.89;461.23;88977.00;0.30;154.54;;;;;14.70;1.00;;;;;;2267923;61;1166;-87
2024/02/13 17:53:14;425514.00;1.42;733.67;111631.00;0.37;193.64;;;;;14.80;1.00;;;;;;2268274;61;1358;-87
2024/02/13 17:55:42;224603.00;0.75;388.26;90787.00;0.30;157.67;;;;;14.90;1.00;;;;;;2268391;61;2004;-87
2024/02/13 17:58:09;233749.00;0.78;404.00;85921.00;0.29;149.26;;;;;14.70;1.00;;;;;;2268523;61;1028;-87
2024/02/13 18:00:36;40204.00;0.13;70.24;0.00;0.00;0.62;;;;;14.60;1.00;;;;;;2268332;61;1098;-89
2024/02/13 18:03:03;325578.00;1.09;561.89;81831.00;0.27;142.20;;;;;14.50;1.00;;;;;;2268434;61;1277;-88
2024/02/13 18:05:31;96056.00;0.32;166.76;0.00;0.00;0.62;;;;;14.40;1.00;;;;;;2268296;61;1008;-89
2024/02/13 18:07:59;225957.00;0.75;390.59;28574.00;0.10;50.11;;;;;14.50;1.00;;;;;;2268284;61;1051;-88
2024/02/13 18:10:26;71009.00;0.24;123.50;0.00;0.00;0.62;;;;;14.40;1.00;;;;;;2268238;61;1079;-89
2024/02/13 18:12:57;19547.00;0.07;34.49;0.00;0.00;0.62;;;;;14.30;1.00;;;;;;2268217;61;1313;-86
2024/02/13 18:15:24;169560.00;0.57;293.51;0.00;0.00;0.62;;;;;14.20;1.00;;;;;;2268324;61;2189;-89
2024/02/13 18:17:52;16366.00;0.05;28.98;0.00;0.00;0.62;;;;;14.20;1.00;;;;;;2268305;61;953;-88
2024/02/13 18:20:21;32678.00;0.11;57.22;0.00;0.00;0.62;;;;;14.40;1.00;;;;;;2268512;61;1053;-88
2024/02/13 18:22:48;42703.00;0.14;74.56;0.00;0.00;0.62;;;;;14.30;1.00;;;;;;2289321;39;3616;-87
2024/02/13 18:25:16;0.00;0.00;0.62;0.00;0.00;0.62;;;;;14.40;1.00;;;;;;2272402;61;1161;-87
2024/02/13 18:27:43;47386.00;0.16;82.67;0.00;0.00;0.62;;;;;14.50;1.00;;;;;;2272551;61;1047;-87
2024/02/13 18:30:11;0.00;0.00;0.62;0.00;0.00;0.62;;;;;14.50;1.00;;;;;;2272514;61;893;-86
2024/02/13 18:32:38;353887.00;1.18;610.54;43922.00;0.15;76.67;;;;;14.30;1.00;;;;;;2272479;61;1384;-87
2024/02/13 18:35:06;155353.00;0.52;269.03;0.00;0.00;0.62;;;;;14.40;1.00;;;;;;2272400;61;1476;-90
2024/02/13 18:37:33;150432.00;0.50;260.55;0.00;0.00;0.62;;;;;14.50;1.00;;;;;;2272410;61;1935;-90
2024/02/13 18:40:01;165743.00;0.55;286.93;33058.00;0.11;57.88;;;;;14.60;1.00;;;;;;2272490;61;1013;-85
2024/02/13 18:42:29;262793.00;0.88;453.95;92738.00;0.31;161.04;;;;;14.70;1.00;;;;;;2272453;61;1602;-87
2024/02/13 18:44:57;38451.00;0.13;67.21;0.00;0.00;0.62;;;;;14.70;1.00;;;;;;2272557;61;949;-86
2024/02/13 18:47:24;143472.00;0.48;248.56;0.00;0.00;0.62;;;;;14.70;1.00;;;;;;2272537;61;1105;-88
2024/02/13 18:49:52;123201.00;0.41;213.60;0.00;0.00;0.62;;;;;14.10;1.00;;;;;;2272518;61;1248;-87
2024/02/13 18:52:19;23279.00;0.08;40.95;0.00;0.00;0.62;;;;;13.70;1.00;;;;;;2272486;61;1565;-88
2024/02/13 18:54:46;86790.00;0.29;150.76;0.00;0.00;0.62;;;;;14.00;1.00;;;;;;2272563;61;1054;-89
2024/02/13 18:57:13;31174.00;0.10;54.62;0.00;0.00;0.62;;;;;14.00;1.00;;;;;;2272485;61;2227;-89
2024/02/13 18:59:42;57599.00;0.19;100.33;0.00;0.00;0.62;;;;;14.20;1.00;;;;;;2272536;61;1078;-87
2024/02/13 19:02:10;95729.00;0.32;166.20;0.00;0.00;0.62;;;;;14.30;1.00;;;;;;2272543;61;1141;-87
2024/02/13 19:04:38;258994.00;0.86;447.42;0.00;0.00;0.62;;;;;13.90;1.00;;;;;;2272351;61;1258;-87
2024/02/13 19:07:05;158473.00;0.53;274.41;19800.00;0.07;34.92;;;;;13.60;1.00;;;;;;2272401;61;1590;-87
2024/02/13 19:09:31;56663.00;0.19;98.71;0.00;0.00;0.62;;;;;13.60;1.00;;;;;;2272520;61;1011;-87
2024/02/13 19:11:58;180214.00;0.60;311.86;0.00;0.00;0.62;;;;;13.60;1.00;;;;;;2272313;61;1025;-88
2024/02/13 19:14:25;88126.00;0.29;153.07;0.00;0.00;0.62;;;;;13.00;1.00;;;;;;2272486;61;1381;-88
2024/02/13 19:16:53;211232.00;0.70;365.26;41747.00;0.14;72.91;;;;;13.30;1.00;;;;;;2272449;61;2009;-89
2024/02/13 19:19:20;132742.00;0.44;230.06;0.00;0.00;0.62;;;;;13.60;1.00;;;;;;2272463;61;1094;-88
2024/02/13 19:21:47;278627.00;0.93;481.18;0.00;0.00;0.62;;;;;13.50;1.00;;;;;;2272427;61;918;-88
2024/02/13 19:24:14;56762.00;0.19;98.88;0.00;0.00;0.62;;;;;13.10;1.00;;;;;;2272382;61;1280;-88
2024/02/13 19:26:41;12046.00;0.04;21.49;0.00;0.00;0.62;;;;;13.10;1.00;;;;;;2272470;61;1065;-89
2024/02/13 19:29:09;151215.00;0.50;261.90;0.00;0.00;0.62;;;;;13.30;1.00;;;;;;2272421;61;1054;-88
2024/02/13 19:31:36;2882.00;0.01;5.62;0.00;0.00;0.62;;;;;13.40;1.00;;;;;;2272402;61;1109;-87
2024/02/13 19:34:04;30162.00;0.10;52.86;0.00;0.00;0.62;;;;;13.20;1.00;;;;;;2272369;61;1551;-87
2024/02/13 19:36:31;140274.00;0.47;243.04;0.00;0.00;0.62;;;;;13.30;1.00;;;;;;2272304;61;2374;-87
2024/02/13 19:38:59;93523.00;0.31;162.39;0.00;0.00;0.62;;;;;13.50;1.00;;;;;;2272392;61;1017;-87
2024/02/13 19:41:26;48271.00;0.16;84.20;0.00;0.00;0.62;;;;;13.50;1.00;;;;;;2272287;61;1032;-88
2024/02/13 19:43:53;43882.00;0.15;76.60;0.00;0.00;0.62;;;;;13.80;1.00;;;;;;2272218;61;1694;-86
2024/02/13 19:46:21;160979.00;0.54;278.73;0.00;0.00;0.62;;;;;13.70;1.00;;;;;;2272219;61;1680;-87
2024/02/13 19:48:49;210844.00;0.70;364.59;25168.00;0.08;44.22;;;;;13.70;1.00;;;;;;2272397;61;1237;-88
2024/02/13 19:51:18;222454.00;0.74;384.57;0.00;0.00;0.62;;;;;13.50;1.00;;;;;;2272271;61;1673;-87
2024/02/13 19:53:45;193310.00;0.64;334.41;33552.00;0.11;58.73;;;;;13.30;1.00;;;;;;2272349;61;1353;-88
2024/02/13 19:56:14;159465.00;0.53;276.12;0.00;0.00;0.62;;;;;13.00;1.00;;;;;;2272312;61;1917;-88
2024/02/13 19:58:42;61994.00;0.21;107.92;0.00;0.00;0.62;;;;;13.00;1.00;;;;;;2272251;61;1697;-88
2024/02/13 20:01:09;8277.00;0.03;14.96;0.00;0.00;0.62;;;;;13.20;1.00;;;;;;2272372;61;1094;-89
2024/02/13 20:03:38;69764.00;0.23;121.35;0.00;0.00;0.62;;;;;13.60;1.00;;;;;;2272315;61;1373;-87
2024/02/13 20:06:06;59752.00;0.20;104.05;0.00;0.00;0.62;;;;;13.60;1.00;;;;;;2272348;61;960;-88
2024/02/13 20:08:34;243428.00;0.81;420.65;8535.00;0.03;15.41;;;;;13.60;1.00;;;;;;2272316;61;1110;-89
2024/02/13 20:11:01;117175.00;0.39;203.21;0.00;0.00;0.62;;;;;13.40;1.00;;;;;;2272218;61;1102;-88
2024/02/13 20:13:28;34606.00;0.12;60.55;0.00;0.00;0.62;;;;;13.40;1.00;;;;;;2272224;61;1273;-89
2024/02/13 20:15:55;144627.00;0.48;250.55;13300.00;0.04;23.67;;;;;13.60;1.00;;;;;;2272145;61;2004;-88
2024/02/13 20:18:22;404291.00;1.35;697.18;21287.00;0.07;37.50;;;;;13.80;1.00;;;;;;2272228;61;1054;-88
2024/02/13 20:20:49;612570.00;2.04;1055.93;11526.00;0.04;20.59;;;;;13.80;1.00;;;;;;2271031;61;1715;-88
2024/02/13 20:23:17;391599.00;1.31;675.36;0.00;0.00;0.62;;;;;13.70;1.00;;;;;;2272094;61;1336;-88
2024/02/13 20:25:46;614067.00;2.05;1058.52;31931.00;0.11;55.93;;;;;13.80;1.00;;;;;;2272342;61;1728;-86
2024/02/13 20:28:13;1179717.00;3.93;2053.59;45140.00;0.15;78.78;;;;;13.90;1.00;;;;;;2272233;61;958;-89
2024/02/13 20:33:15;1174497.00;3.91;2044.18;146237.00;0.49;253.32;;;;;13.90;1.00;;;;;;2274812;61;1414;-89
2024/02/13 20:35:44;1345105.00;4.48;2354.89;117683.00;0.39;204.09;;;;;13.80;1.00;;;;;;2276048;61;2208;-88
2024/02/13 20:38:11;1497171.00;4.99;2637.80;150333.00;0.50;260.38;;;;;13.70;1.00;;;;;;2276038;61;2034;-87
2024/02/13 20:40:38;1059986.00;3.53;1839.01;58471.00;0.19;101.83;;;;;13.60;1.00;;;;;;2276168;61;1411;-90
2024/02/13 20:43:06;1233141.00;4.11;2150.26;144293.00;0.48;249.97;;;;;13.50;1.00;;;;;;2276067;61;1365;-88
2024/02/13 20:45:34;1316202.00;4.39;2301.79;71683.00;0.24;124.67;;;;;13.30;1.00;;;;;;2276079;61;963;-88
2024/02/13 20:50:28;1207515.00;4.03;2103.81;93341.00;0.31;162.08;;;;;13.40;1.00;;;;;;2273815;61;1391;-89
2024/02/13 20:52:56;118124048.00;393.75;66765280.00;163662.00;0.55;283.35;;;;;13.40;1.00;;;;;;2271975;61;1600;-88
2024/02/13 20:55:23;442038.00;1.47;762.09;84093.00;0.28;146.11;;;;;13.60;1.00;;;;;;2271976;61;1337;-88
2024/02/13 20:57:55;482635.00;1.61;831.93;75811.00;0.25;131.80;;;;;13.50;1.00;;;;;;2271936;61;2001;-89
2024/02/13 21:00:23;434234.00;1.45;748.67;87053.00;0.29;151.22;;;;;13.50;1.00;;;;;;2271967;61;1443;-88
2024/02/13 21:02:50;413242.00;1.38;712.57;88888.00;0.30;154.39;;;;;13.50;1.00;;;;;;2271984;61;1395;-88
2024/02/13 21:05:20;250585.00;0.84;432.96;87206.00;0.29;151.48;;;;;13.50;1.00;;;;;;2271894;61;1125;-89
2024/02/13 21:07:47;139268.00;0.46;241.31;906.00;0.00;2.19;;;;;13.50;1.00;;;;;;2285157;55;3720;-88
2024/02/13 21:10:16;345176.00;1.15;595.57;0.00;0.00;0.62;;;;;13.30;1.00;;;;;;2272040;61;1066;-89
2024/02/13 21:12:43;145284.00;0.48;251.68;49354.00;0.16;86.07;;;;;13.30;1.00;;;;;;2274044;55;3750;-86
2024/02/13 21:15:13;127643.00;0.43;221.26;0.00;0.00;0.62;;;;;13.30;1.00;;;;;;2272005;61;1690;-87
2024/02/13 21:17:42;58003.00;0.19;101.02;0.00;0.00;0.62;;;;;13.40;1.00;;;;;;2271935;61;1912;-89
2024/02/13 21:20:11;75921.00;0.25;131.99;0.00;0.00;0.62;;;;;13.40;1.00;;;;;;2271948;61;1537;-88
2024/02/13 21:25:24;9413.00;0.03;16.93;0.00;0.00;0.62;;;;;13.40;1.00;;;;;;2272064;61;614;-89
2024/02/13 21:27:51;178464.00;0.59;308.84;28398.00;0.09;49.81;;;;;13.40;1.00;;;;;;2274329;55;3740;-87
2024/02/13 21:30:18;170514.00;0.57;295.15;0.00;0.00;0.62;;;;;13.50;1.00;;;;;;2272686;61;1000;-87
2024/02/13 21:32:48;52404.00;0.17;91.34;0.00;0.00;0.62;;;;;13.10;1.00;;;;;;2272588;61;1662;-87
2024/02/13 21:35:15;91431.00;0.30;158.78;0.00;0.00;0.62;;;;;13.10;1.00;;;;;;2272770;61;1009;-88
2024/02/13 21:37:43;139920.00;0.47;242.43;0.00;0.00;0.62;;;;;13.10;1.00;;;;;;2272641;61;1992;-88
2024/02/13 21:40:13;137643.00;0.46;238.51;0.00;0.00;0.62;;;;;12.60;1.00;;;;;;2272666;61;1714;-87
2024/02/13 21:42:40;104721.00;0.35;181.72;0.00;0.00;0.62;;;;;12.40;1.00;;;;;;2272742;61;1367;-87
2024/02/13 21:45:09;26497.00;0.09;46.52;0.00;0.00;0.62;;;;;12.50;1.00;;;;;;2272637;61;1776;-87
2024/02/13 21:47:40;283270.00;0.94;489.16;0.00;0.00;0.62;;;;;12.70;1.00;;;;;;2272728;61;1077;-89
2024/02/13 21:50:10;244537.00;0.82;422.56;63877.00;0.21;111.18;;;;;12.60;1.00;;;;;;2272710;61;1612;-90
2024/02/13 21:52:37;197028.00;0.66;340.81;39790.00;0.13;69.53;;;;;12.50;1.00;;;;;;2274749;55;3721;-86
2024/02/13 21:55:05;80498.00;0.27;139.90;0.00;0.00;0.62;;;;;12.70;1.00;;;;;;2272801;61;1082;-87
2024/02/13 21:57:32;120760.00;0.40;209.39;32199.00;0.11;56.39;;;;;12.90;1.00;;;;;;2272623;61;2006;-88
2024/02/13 22:00:04;99841.00;0.33;173.30;0.00;0.00;0.62;;;;;12.70;1.00;;;;;;2272697;61;1083;-87
2024/02/13 22:02:31;110516.00;0.37;191.72;0.00;0.00;0.62;;;;;12.50;1.00;;;;;;2272751;61;1453;-90
2024/02/13 22:04:58;21151.00;0.07;37.26;0.00;0.00;0.62;;;;;12.50;1.00;;;;;;2272726;61;921;-86
2024/02/13 22:07:26;97030.00;0.32;168.45;30666.00;0.10;53.74;;;;;12.60;1.00;;;;;;2272689;61;1017;-88
2024/02/13 22:09:54;67726.00;0.23;117.83;0.00;0.00;0.62;;;;;12.10;1.00;;;;;;2272637;61;1094;-87
2024/02/13 22:12:20;84266.00;0.28;146.41;0.00;0.00;0.62;;;;;12.20;1.00;;;;;;2272718;61;1402;-86
2024/02/13 22:14:47;53759.00;0.18;93.69;0.00;0.00;0.62;;;;;12.00;1.00;;;;;;2272667;61;1061;-87
2024/02/13 22:17:14;37124.00;0.12;64.91;0.00;0.00;0.62;;;;;12.20;1.00;;;;;;2272578;61;1919;-85
2024/02/13 22:19:41;120247.00;0.40;208.51;0.00;0.00;0.62;;;;;12.10;1.00;;;;;;2272698;61;1105;-87
2024/02/13 22:22:11;75332.00;0.25;130.97;0.00;0.00;0.62;;;;;11.80;1.00;;;;;;2272688;61;1133;-86
2024/02/13 22:24:39;139815.00;0.47;242.25;28651.00;0.10;50.25;;;;;11.60;1.00;;;;;;2272475;61;1734;-85
2024/02/13 22:27:06;59403.00;0.20;103.44;0.00;0.00;0.62;;;;;11.20;1.00;;;;;;2272548;61;1074;-87
2024/02/13 22:29:33;48697.00;0.16;84.93;0.00;0.00;0.62;;;;;10.90;1.00;;;;;;2272593;61;1104;-86
2024/02/13 22:32:00;251136.00;0.84;433.90;10542.00;0.04;18.89;;;;;10.60;1.00;;;;;;2272555;61;1052;-88